sensor_id;sensor_type;location;lat;lon;timestamp;P1;durP1;ratioP1;P2;durP2;ratioP2
4001;SDS011;2015;48.670;9.060;2023-01-25T00:00:37;45.30;;;25.20;;
4001;SDS011;2015;48.670;9.060;2023-01-25T00:03:09;45.87;;;24.90;;
4001;SDS011;2015;48.670;9.060;2023-01-25T00:05:41;53.30;;;26.43;;
4001;SDS011;2015;48.670;9.060;2023-01-25T00:08:13;46.63;;;23.63;;
4001;SDS011;2015;48.670;9.060;2023-01-25T00:10:49;43.60;;;22.87;;
4001;SDS011;2015;48.670;9.060;2023-01-25T00:13:21;44.23;;;25.47;;
4001;SDS011;2015;48.670;9.060;2023-01-25T00:15:59;42.87;;;20.73;;
4001;SDS011;2015;48.670;9.060;2023-01-25T00:18:32;44.33;;;24.17;;
4001;SDS011;2015;48.670;9.060;2023-01-25T00:23:51;43.13;;;21.80;;
4001;SDS011;2015;48.670;9.060;2023-01-25T00:26:23;46.70;;;24.53;;
4001;SDS011;2015;48.670;9.060;2023-01-25T00:28:55;41.23;;;22.83;;
4001;SDS011;2015;48.670;9.060;2023-01-25T00:37:37;45.30;;;21.83;;
4001;SDS011;2015;48.670;9.060;2023-01-25T00:40:13;47.40;;;23.10;;
4001;SDS011;2015;48.670;9.060;2023-01-25T00:42:46;47.30;;;22.57;;
4001;SDS011;2015;48.670;9.060;2023-01-25T00:45:17;51.07;;;21.60;;
4001;SDS011;2015;48.670;9.060;2023-01-25T00:47:52;43.93;;;24.70;;
4001;SDS011;2015;48.670;9.060;2023-01-25T00:50:25;44.23;;;22.27;;
4001;SDS011;2015;48.670;9.060;2023-01-25T00:52:57;47.00;;;23.30;;
4001;SDS011;2015;48.670;9.060;2023-01-25T00:55:28;46.67;;;22.80;;
4001;SDS011;2015;48.670;9.060;2023-01-25T00:58:00;40.57;;;21.70;;
4001;SDS011;2015;48.670;9.060;2023-01-25T01:00:32;48.77;;;25.20;;
4001;SDS011;2015;48.670;9.060;2023-01-25T01:03:04;42.60;;;23.43;;
4001;SDS011;2015;48.670;9.060;2023-01-25T01:05:35;40.90;;;20.77;;
4001;SDS011;2015;48.670;9.060;2023-01-25T01:08:08;53.67;;;23.67;;
4001;SDS011;2015;48.670;9.060;2023-01-25T01:21:22;41.00;;;21.87;;
4001;SDS011;2015;48.670;9.060;2023-01-25T01:23:54;44.33;;;23.00;;
4001;SDS011;2015;48.670;9.060;2023-01-25T01:26:26;44.13;;;21.57;;
4001;SDS011;2015;48.670;9.060;2023-01-25T01:28:58;44.63;;;24.27;;
4001;SDS011;2015;48.670;9.060;2023-01-25T01:31:30;39.30;;;22.27;;
4001;SDS011;2015;48.670;9.060;2023-01-25T01:34:02;45.60;;;23.77;;
4001;SDS011;2015;48.670;9.060;2023-01-25T01:36:34;44.07;;;23.50;;
4001;SDS011;2015;48.670;9.060;2023-01-25T01:39:06;41.23;;;22.93;;
4001;SDS011;2015;48.670;9.060;2023-01-25T01:41:38;47.73;;;23.17;;
4001;SDS011;2015;48.670;9.060;2023-01-25T01:44:14;42.63;;;22.80;;
4001;SDS011;2015;48.670;9.060;2023-01-25T01:46:53;42.10;;;22.23;;
4001;SDS011;2015;48.670;9.060;2023-01-25T01:49:28;43.83;;;20.70;;
4001;SDS011;2015;48.670;9.060;2023-01-25T01:52:07;42.77;;;22.87;;
4001;SDS011;2015;48.670;9.060;2023-01-25T01:54:47;44.10;;;22.43;;
4001;SDS011;2015;48.670;9.060;2023-01-25T01:57:33;35.17;;;19.77;;
4001;SDS011;2015;48.670;9.060;2023-01-25T02:00:15;43.60;;;22.13;;
4001;SDS011;2015;48.670;9.060;2023-01-25T02:02:57;39.00;;;19.37;;
4001;SDS011;2015;48.670;9.060;2023-01-25T02:05:46;32.20;;;19.03;;
4001;SDS011;2015;48.670;9.060;2023-01-25T02:08:29;35.10;;;19.50;;
4001;SDS011;2015;48.670;9.060;2023-01-25T02:11:04;42.97;;;21.27;;
4001;SDS011;2015;48.670;9.060;2023-01-25T02:13:38;38.90;;;20.30;;
4001;SDS011;2015;48.670;9.060;2023-01-25T02:16:13;34.80;;;19.73;;
4001;SDS011;2015;48.670;9.060;2023-01-25T02:18:50;34.83;;;21.37;;
4001;SDS011;2015;48.670;9.060;2023-01-25T02:21:23;40.57;;;22.17;;
4001;SDS011;2015;48.670;9.060;2023-01-25T02:24:00;40.10;;;20.80;;
4001;SDS011;2015;48.670;9.060;2023-01-25T02:26:39;38.10;;;19.43;;
4001;SDS011;2015;48.670;9.060;2023-01-25T02:29:11;36.77;;;20.37;;
4001;SDS011;2015;48.670;9.060;2023-01-25T02:31:44;37.03;;;20.77;;
4001;SDS011;2015;48.670;9.060;2023-01-25T02:34:19;42.13;;;21.47;;
4001;SDS011;2015;48.670;9.060;2023-01-25T02:36:51;37.63;;;20.17;;
4001;SDS011;2015;48.670;9.060;2023-01-25T02:39:23;44.92;;;21.88;;
4001;SDS011;2015;48.670;9.060;2023-01-25T02:41:58;42.17;;;22.10;;
4001;SDS011;2015;48.670;9.060;2023-01-25T02:44:30;41.33;;;21.37;;
4001;SDS011;2015;48.670;9.060;2023-01-25T02:47:04;34.37;;;20.00;;
4001;SDS011;2015;48.670;9.060;2023-01-25T02:49:36;37.83;;;21.53;;
4001;SDS011;2015;48.670;9.060;2023-01-25T02:52:08;34.17;;;22.13;;
4001;SDS011;2015;48.670;9.060;2023-01-25T02:54:40;37.20;;;19.30;;
4001;SDS011;2015;48.670;9.060;2023-01-25T02:57:11;32.17;;;21.90;;
4001;SDS011;2015;48.670;9.060;2023-01-25T02:59:43;37.47;;;19.80;;
4001;SDS011;2015;48.670;9.060;2023-01-25T03:02:15;34.73;;;20.40;;
4001;SDS011;2015;48.670;9.060;2023-01-25T03:04:47;38.90;;;19.50;;
4001;SDS011;2015;48.670;9.060;2023-01-25T03:07:18;36.87;;;18.83;;
4001;SDS011;2015;48.670;9.060;2023-01-25T03:09:50;41.03;;;21.50;;
4001;SDS011;2015;48.670;9.060;2023-01-25T03:12:22;38.83;;;22.00;;
4001;SDS011;2015;48.670;9.060;2023-01-25T03:14:54;37.37;;;20.70;;
4001;SDS011;2015;48.670;9.060;2023-01-25T03:17:25;42.40;;;23.37;;
4001;SDS011;2015;48.670;9.060;2023-01-25T03:19:57;39.70;;;21.07;;
4001;SDS011;2015;48.670;9.060;2023-01-25T03:22:29;37.27;;;20.00;;
4001;SDS011;2015;48.670;9.060;2023-01-25T03:25:01;39.13;;;19.40;;
4001;SDS011;2015;48.670;9.060;2023-01-25T03:27:32;37.33;;;20.70;;
4001;SDS011;2015;48.670;9.060;2023-01-25T03:30:04;34.80;;;19.93;;
4001;SDS011;2015;48.670;9.060;2023-01-25T03:32:37;45.55;;;21.83;;
4001;SDS011;2015;48.670;9.060;2023-01-25T03:35:09;38.83;;;21.53;;
4001;SDS011;2015;48.670;9.060;2023-01-25T03:37:41;40.77;;;21.53;;
4001;SDS011;2015;48.670;9.060;2023-01-25T03:40:12;38.80;;;19.53;;
4001;SDS011;2015;48.670;9.060;2023-01-25T03:42:44;46.43;;;22.20;;
4001;SDS011;2015;48.670;9.060;2023-01-25T03:45:16;36.17;;;22.47;;
4001;SDS011;2015;48.670;9.060;2023-01-25T03:47:48;37.60;;;19.30;;
4001;SDS011;2015;48.670;9.060;2023-01-25T03:50:20;36.63;;;18.17;;
4001;SDS011;2015;48.670;9.060;2023-01-25T03:52:51;37.10;;;23.83;;
4001;SDS011;2015;48.670;9.060;2023-01-25T03:55:29;33.73;;;19.20;;
4001;SDS011;2015;48.670;9.060;2023-01-25T03:58:01;32.20;;;18.93;;
4001;SDS011;2015;48.670;9.060;2023-01-25T04:00:33;42.17;;;20.70;;
4001;SDS011;2015;48.670;9.060;2023-01-25T04:03:05;36.00;;;20.90;;
4001;SDS011;2015;48.670;9.060;2023-01-25T04:05:37;41.37;;;23.27;;
4001;SDS011;2015;48.670;9.060;2023-01-25T04:08:08;37.50;;;21.77;;
4001;SDS011;2015;48.670;9.060;2023-01-25T04:10:40;38.87;;;22.13;;
4001;SDS011;2015;48.670;9.060;2023-01-25T04:13:12;35.63;;;19.20;;
4001;SDS011;2015;48.670;9.060;2023-01-25T04:15:44;43.70;;;23.00;;
4001;SDS011;2015;48.670;9.060;2023-01-25T04:18:16;30.87;;;19.17;;
4001;SDS011;2015;48.670;9.060;2023-01-25T04:20:54;31.03;;;18.37;;
4001;SDS011;2015;48.670;9.060;2023-01-25T04:23:27;35.33;;;19.93;;
4001;SDS011;2015;48.670;9.060;2023-01-25T04:25:59;34.53;;;18.67;;
4001;SDS011;2015;48.670;9.060;2023-01-25T04:28:35;40.45;;;22.88;;
4001;SDS011;2015;48.670;9.060;2023-01-25T04:31:07;39.83;;;21.10;;
4001;SDS011;2015;48.670;9.060;2023-01-25T04:33:38;35.10;;;18.37;;
4001;SDS011;2015;48.670;9.060;2023-01-25T04:36:10;30.30;;;16.57;;
4001;SDS011;2015;48.670;9.060;2023-01-25T04:38:42;33.53;;;19.97;;
4001;SDS011;2015;48.670;9.060;2023-01-25T04:41:14;31.37;;;18.40;;
4001;SDS011;2015;48.670;9.060;2023-01-25T04:43:45;33.90;;;19.50;;
4001;SDS011;2015;48.670;9.060;2023-01-25T04:46:17;34.40;;;19.90;;
4001;SDS011;2015;48.670;9.060;2023-01-25T04:48:49;38.03;;;20.10;;
4001;SDS011;2015;48.670;9.060;2023-01-25T04:51:20;33.10;;;19.20;;
4001;SDS011;2015;48.670;9.060;2023-01-25T04:53:52;35.30;;;19.23;;
4001;SDS011;2015;48.670;9.060;2023-01-25T04:56:24;27.20;;;17.60;;
4001;SDS011;2015;48.670;9.060;2023-01-25T04:58:56;35.23;;;19.20;;
4001;SDS011;2015;48.670;9.060;2023-01-25T05:01:28;34.08;;;20.70;;
4001;SDS011;2015;48.670;9.060;2023-01-25T05:03:59;30.23;;;18.57;;
4001;SDS011;2015;48.670;9.060;2023-01-25T05:06:31;35.67;;;18.97;;
4001;SDS011;2015;48.670;9.060;2023-01-25T05:09:03;35.60;;;19.27;;
4001;SDS011;2015;48.670;9.060;2023-01-25T05:11:35;37.70;;;20.67;;
4001;SDS011;2015;48.670;9.060;2023-01-25T05:14:07;30.47;;;18.10;;
4001;SDS011;2015;48.670;9.060;2023-01-25T05:16:38;32.90;;;17.90;;
4001;SDS011;2015;48.670;9.060;2023-01-25T05:19:10;27.30;;;16.77;;
4001;SDS011;2015;48.670;9.060;2023-01-25T05:21:42;30.42;;;18.83;;
4001;SDS011;2015;48.670;9.060;2023-01-25T05:24:30;34.40;;;19.67;;
4001;SDS011;2015;48.670;9.060;2023-01-25T05:27:02;32.67;;;17.73;;
4001;SDS011;2015;48.670;9.060;2023-01-25T05:29:35;34.47;;;17.60;;
4001;SDS011;2015;48.670;9.060;2023-01-25T05:32:09;32.07;;;17.20;;
4001;SDS011;2015;48.670;9.060;2023-01-25T05:34:46;30.17;;;17.63;;
4001;SDS011;2015;48.670;9.060;2023-01-25T05:37:19;29.50;;;15.90;;
4001;SDS011;2015;48.670;9.060;2023-01-25T05:39:51;29.03;;;16.53;;
4001;SDS011;2015;48.670;9.060;2023-01-25T05:42:23;31.53;;;16.93;;
4001;SDS011;2015;48.670;9.060;2023-01-25T05:44:55;25.23;;;13.27;;
4001;SDS011;2015;48.670;9.060;2023-01-25T05:47:26;30.07;;;14.97;;
4001;SDS011;2015;48.670;9.060;2023-01-25T05:49:58;20.30;;;13.93;;
4001;SDS011;2015;48.670;9.060;2023-01-25T05:52:30;36.30;;;16.13;;
4001;SDS011;2015;48.670;9.060;2023-01-25T05:55:02;24.83;;;15.93;;
4001;SDS011;2015;48.670;9.060;2023-01-25T05:57:34;27.70;;;14.80;;
4001;SDS011;2015;48.670;9.060;2023-01-25T06:00:06;31.33;;;17.67;;
4001;SDS011;2015;48.670;9.060;2023-01-25T06:02:39;30.63;;;16.60;;
4001;SDS011;2015;48.670;9.060;2023-01-25T06:05:11;27.67;;;14.27;;
4001;SDS011;2015;48.670;9.060;2023-01-25T06:07:43;29.17;;;15.27;;
4001;SDS011;2015;48.670;9.060;2023-01-25T06:10:15;27.87;;;17.10;;
4001;SDS011;2015;48.670;9.060;2023-01-25T06:12:46;24.90;;;15.03;;
4001;SDS011;2015;48.670;9.060;2023-01-25T06:15:18;26.40;;;15.70;;
4001;SDS011;2015;48.670;9.060;2023-01-25T06:17:54;27.93;;;17.47;;
4001;SDS011;2015;48.670;9.060;2023-01-25T06:20:26;22.83;;;15.83;;
4001;SDS011;2015;48.670;9.060;2023-01-25T06:22:58;22.73;;;14.70;;
4001;SDS011;2015;48.670;9.060;2023-01-25T06:25:30;29.47;;;17.03;;
4001;SDS011;2015;48.670;9.060;2023-01-25T06:28:01;25.07;;;15.47;;
4001;SDS011;2015;48.670;9.060;2023-01-25T06:30:33;27.90;;;16.50;;
4001;SDS011;2015;48.670;9.060;2023-01-25T06:33:05;32.70;;;16.70;;
4001;SDS011;2015;48.670;9.060;2023-01-25T06:35:37;31.10;;;15.13;;
4001;SDS011;2015;48.670;9.060;2023-01-25T06:38:10;25.40;;;14.80;;
4001;SDS011;2015;48.670;9.060;2023-01-25T06:40:42;26.80;;;16.77;;
4001;SDS011;2015;48.670;9.060;2023-01-25T06:43:14;27.83;;;16.67;;
4001;SDS011;2015;48.670;9.060;2023-01-25T06:45:45;26.33;;;14.87;;
4001;SDS011;2015;48.670;9.060;2023-01-25T06:48:17;26.83;;;16.13;;
4001;SDS011;2015;48.670;9.060;2023-01-25T06:50:53;27.60;;;16.07;;
4001;SDS011;2015;48.670;9.060;2023-01-25T06:53:33;29.57;;;18.13;;
4001;SDS011;2015;48.670;9.060;2023-01-25T06:56:07;29.47;;;16.50;;
4001;SDS011;2015;48.670;9.060;2023-01-25T06:58:42;27.60;;;17.30;;
4001;SDS011;2015;48.670;9.060;2023-01-25T07:01:16;26.70;;;17.50;;
4001;SDS011;2015;48.670;9.060;2023-01-25T07:03:53;32.80;;;16.43;;
4001;SDS011;2015;48.670;9.060;2023-01-25T07:06:30;24.23;;;14.63;;
4001;SDS011;2015;48.670;9.060;2023-01-25T07:09:06;33.93;;;16.83;;
4001;SDS011;2015;48.670;9.060;2023-01-25T07:11:40;28.07;;;16.07;;
4001;SDS011;2015;48.670;9.060;2023-01-25T07:14:11;32.73;;;16.40;;
4001;SDS011;2015;48.670;9.060;2023-01-25T07:16:43;34.00;;;17.40;;
4001;SDS011;2015;48.670;9.060;2023-01-25T07:19:15;28.83;;;16.07;;
4001;SDS011;2015;48.670;9.060;2023-01-25T07:21:48;28.67;;;16.50;;
4001;SDS011;2015;48.670;9.060;2023-01-25T07:24:19;28.50;;;16.53;;
4001;SDS011;2015;48.670;9.060;2023-01-25T07:26:51;25.80;;;15.93;;
4001;SDS011;2015;48.670;9.060;2023-01-25T07:29:23;30.00;;;17.33;;
4001;SDS011;2015;48.670;9.060;2023-01-25T07:31:55;21.97;;;14.07;;
4001;SDS011;2015;48.670;9.060;2023-01-25T07:34:27;24.10;;;15.70;;
4001;SDS011;2015;48.670;9.060;2023-01-25T07:36:59;27.63;;;17.10;;
4001;SDS011;2015;48.670;9.060;2023-01-25T07:39:30;29.17;;;17.10;;
4001;SDS011;2015;48.670;9.060;2023-01-25T07:42:02;27.52;;;15.80;;
4001;SDS011;2015;48.670;9.060;2023-01-25T07:44:34;25.20;;;16.03;;
4001;SDS011;2015;48.670;9.060;2023-01-25T07:47:06;27.90;;;18.13;;
4001;SDS011;2015;48.670;9.060;2023-01-25T07:49:38;29.03;;;15.93;;
4001;SDS011;2015;48.670;9.060;2023-01-25T07:52:09;28.70;;;17.90;;
4001;SDS011;2015;48.670;9.060;2023-01-25T07:54:41;25.17;;;13.77;;
4001;SDS011;2015;48.670;9.060;2023-01-25T07:57:13;24.90;;;15.13;;
4001;SDS011;2015;48.670;9.060;2023-01-25T07:59:45;23.87;;;15.83;;
4001;SDS011;2015;48.670;9.060;2023-01-25T08:02:17;29.20;;;16.47;;
4001;SDS011;2015;48.670;9.060;2023-01-25T08:04:49;33.38;;;19.35;;
4001;SDS011;2015;48.670;9.060;2023-01-25T08:07:21;26.80;;;18.03;;
4001;SDS011;2015;48.670;9.060;2023-01-25T08:09:54;22.97;;;14.80;;
4001;SDS011;2015;48.670;9.060;2023-01-25T08:12:26;27.53;;;16.60;;
4001;SDS011;2015;48.670;9.060;2023-01-25T08:14:59;31.93;;;17.73;;
4001;SDS011;2015;48.670;9.060;2023-01-25T08:17:31;31.10;;;17.10;;
4001;SDS011;2015;48.670;9.060;2023-01-25T08:20:03;28.93;;;16.27;;
4001;SDS011;2015;48.670;9.060;2023-01-25T08:22:36;27.40;;;15.50;;
4001;SDS011;2015;48.670;9.060;2023-01-25T08:25:08;30.97;;;15.83;;
4001;SDS011;2015;48.670;9.060;2023-01-25T08:27:40;26.97;;;15.87;;
4001;SDS011;2015;48.670;9.060;2023-01-25T08:30:12;30.23;;;17.60;;
4001;SDS011;2015;48.670;9.060;2023-01-25T08:32:44;24.93;;;15.97;;
4001;SDS011;2015;48.670;9.060;2023-01-25T08:35:16;30.90;;;16.00;;
4001;SDS011;2015;48.670;9.060;2023-01-25T08:37:47;29.27;;;16.23;;
4001;SDS011;2015;48.670;9.060;2023-01-25T08:40:19;26.30;;;15.20;;
4001;SDS011;2015;48.670;9.060;2023-01-25T08:42:51;30.77;;;17.20;;
4001;SDS011;2015;48.670;9.060;2023-01-25T08:45:22;26.83;;;17.87;;
4001;SDS011;2015;48.670;9.060;2023-01-25T08:47:54;24.63;;;15.93;;
4001;SDS011;2015;48.670;9.060;2023-01-25T08:50:26;24.83;;;16.93;;
4001;SDS011;2015;48.670;9.060;2023-01-25T08:52:58;26.83;;;15.43;;
4001;SDS011;2015;48.670;9.060;2023-01-25T08:55:29;28.40;;;17.43;;
4001;SDS011;2015;48.670;9.060;2023-01-25T08:58:01;29.33;;;16.50;;
4001;SDS011;2015;48.670;9.060;2023-01-25T09:00:33;32.03;;;16.83;;
4001;SDS011;2015;48.670;9.060;2023-01-25T09:03:08;23.67;;;16.33;;
4001;SDS011;2015;48.670;9.060;2023-01-25T09:05:40;24.13;;;15.20;;
4001;SDS011;2015;48.670;9.060;2023-01-25T09:08:12;24.53;;;16.17;;
4001;SDS011;2015;48.670;9.060;2023-01-25T09:10:44;25.43;;;15.57;;
4001;SDS011;2015;48.670;9.060;2023-01-25T09:13:15;24.40;;;16.07;;
4001;SDS011;2015;48.670;9.060;2023-01-25T09:15:47;22.10;;;14.80;;
4001;SDS011;2015;48.670;9.060;2023-01-25T09:18:19;27.23;;;15.50;;
4001;SDS011;2015;48.670;9.060;2023-01-25T09:20:51;24.73;;;15.93;;
4001;SDS011;2015;48.670;9.060;2023-01-25T09:23:22;29.30;;;18.20;;
4001;SDS011;2015;48.670;9.060;2023-01-25T09:25:55;28.63;;;17.13;;
4001;SDS011;2015;48.670;9.060;2023-01-25T09:28:30;26.43;;;16.27;;
4001;SDS011;2015;48.670;9.060;2023-01-25T09:31:04;31.60;;;17.17;;
4001;SDS011;2015;48.670;9.060;2023-01-25T09:33:52;30.03;;;17.90;;
4001;SDS011;2015;48.670;9.060;2023-01-25T09:36:24;29.07;;;16.60;;
4001;SDS011;2015;48.670;9.060;2023-01-25T09:38:56;26.80;;;18.13;;
4001;SDS011;2015;48.670;9.060;2023-01-25T09:44:43;29.17;;;17.87;;
4001;SDS011;2015;48.670;9.060;2023-01-25T09:47:28;31.43;;;18.13;;
4001;SDS011;2015;48.670;9.060;2023-01-25T09:55:51;31.97;;;19.13;;
4001;SDS011;2015;48.670;9.060;2023-01-25T09:58:33;29.57;;;16.63;;
4001;SDS011;2015;48.670;9.060;2023-01-25T10:01:33;26.83;;;16.20;;
4001;SDS011;2015;48.670;9.060;2023-01-25T10:07:18;31.00;;;18.53;;
4001;SDS011;2015;48.670;9.060;2023-01-25T10:10:57;29.17;;;16.73;;
4001;SDS011;2015;48.670;9.060;2023-01-25T10:13:12;28.83;;;18.37;;
4001;SDS011;2015;48.670;9.060;2023-01-25T10:15:48;37.60;;;18.43;;
4001;SDS011;2015;48.670;9.060;2023-01-25T10:18:31;30.00;;;18.63;;
4001;SDS011;2015;48.670;9.060;2023-01-25T10:21:16;27.97;;;16.53;;
4001;SDS011;2015;48.670;9.060;2023-01-25T10:26:41;28.63;;;19.17;;
4001;SDS011;2015;48.670;9.060;2023-01-25T10:29:19;34.90;;;17.67;;
4001;SDS011;2015;48.670;9.060;2023-01-25T10:32:17;30.23;;;17.80;;
4001;SDS011;2015;48.670;9.060;2023-01-25T10:35:13;30.90;;;17.47;;
4001;SDS011;2015;48.670;9.060;2023-01-25T10:38:04;33.70;;;20.20;;
4001;SDS011;2015;48.670;9.060;2023-01-25T10:41:06;29.37;;;18.50;;
4001;SDS011;2015;48.670;9.060;2023-01-25T10:43:40;31.83;;;16.70;;
4001;SDS011;2015;48.670;9.060;2023-01-25T10:46:16;26.97;;;16.97;;
4001;SDS011;2015;48.670;9.060;2023-01-25T10:48:52;25.80;;;16.93;;
4001;SDS011;2015;48.670;9.060;2023-01-25T10:51:28;24.80;;;16.33;;
4001;SDS011;2015;48.670;9.060;2023-01-25T10:54:02;32.90;;;17.70;;
4001;SDS011;2015;48.670;9.060;2023-01-25T10:56:35;25.77;;;16.20;;
4001;SDS011;2015;48.670;9.060;2023-01-25T10:59:14;27.60;;;18.30;;
4001;SDS011;2015;48.670;9.060;2023-01-25T11:01:48;32.27;;;20.47;;
4001;SDS011;2015;48.670;9.060;2023-01-25T11:04:28;32.63;;;16.77;;
4001;SDS011;2015;48.670;9.060;2023-01-25T11:07:09;30.73;;;16.50;;
4001;SDS011;2015;48.670;9.060;2023-01-25T11:09:59;28.17;;;16.43;;
4001;SDS011;2015;48.670;9.060;2023-01-25T11:12:30;33.40;;;18.80;;
4001;SDS011;2015;48.670;9.060;2023-01-25T11:15:21;28.00;;;17.03;;
4001;SDS011;2015;48.670;9.060;2023-01-25T11:18:11;31.33;;;17.60;;
4001;SDS011;2015;48.670;9.060;2023-01-25T11:20:46;31.85;;;18.38;;
4001;SDS011;2015;48.670;9.060;2023-01-25T11:23:22;26.13;;;16.07;;
4001;SDS011;2015;48.670;9.060;2023-01-25T11:25:55;26.63;;;16.03;;
4001;SDS011;2015;48.670;9.060;2023-01-25T11:28:47;36.00;;;18.27;;
4001;SDS011;2015;48.670;9.060;2023-01-25T11:31:20;28.90;;;17.10;;
4001;SDS011;2015;48.670;9.060;2023-01-25T11:33:52;32.97;;;15.80;;
4001;SDS011;2015;48.670;9.060;2023-01-25T11:36:37;27.37;;;16.90;;
4001;SDS011;2015;48.670;9.060;2023-01-25T11:51:08;28.73;;;17.00;;
4001;SDS011;2015;48.670;9.060;2023-01-25T12:10:53;21.20;;;15.80;;
4001;SDS011;2015;48.670;9.060;2023-01-25T12:19:43;32.30;;;18.20;;
4001;SDS011;2015;48.670;9.060;2023-01-25T12:22:49;24.53;;;16.27;;
4001;SDS011;2015;48.670;9.060;2023-01-25T12:28:26;30.77;;;18.50;;
4001;SDS011;2015;48.670;9.060;2023-01-25T12:36:27;26.90;;;16.48;;
4001;SDS011;2015;48.670;9.060;2023-01-25T12:45:03;33.37;;;17.83;;
4001;SDS011;2015;48.670;9.060;2023-01-25T12:56:25;32.37;;;18.70;;
4001;SDS011;2015;48.670;9.060;2023-01-25T12:59:06;24.33;;;15.93;;
4001;SDS011;2015;48.670;9.060;2023-01-25T13:07:50;26.87;;;16.33;;
4001;SDS011;2015;48.670;9.060;2023-01-25T13:10:34;29.23;;;18.70;;
4001;SDS011;2015;48.670;9.060;2023-01-25T13:13:18;30.27;;;18.83;;
4001;SDS011;2015;48.670;9.060;2023-01-25T13:16:21;28.00;;;16.87;;
4001;SDS011;2015;48.670;9.060;2023-01-25T13:19:00;31.00;;;19.00;;
4001;SDS011;2015;48.670;9.060;2023-01-25T13:24:17;36.47;;;18.20;;
4001;SDS011;2015;48.670;9.060;2023-01-25T13:27:00;30.73;;;17.60;;
4001;SDS011;2015;48.670;9.060;2023-01-25T13:29:59;30.98;;;18.77;;
4001;SDS011;2015;48.670;9.060;2023-01-25T13:38:04;32.43;;;17.37;;
4001;SDS011;2015;48.670;9.060;2023-01-25T13:40:37;31.33;;;19.03;;
4001;SDS011;2015;48.670;9.060;2023-01-25T13:43:19;31.70;;;18.80;;
4001;SDS011;2015;48.670;9.060;2023-01-25T13:45:52;28.70;;;18.17;;
4001;SDS011;2015;48.670;9.060;2023-01-25T13:48:24;29.23;;;19.13;;
4001;SDS011;2015;48.670;9.060;2023-01-25T13:51:02;32.00;;;19.60;;
4001;SDS011;2015;48.670;9.060;2023-01-25T13:53:39;31.93;;;17.80;;
4001;SDS011;2015;48.670;9.060;2023-01-25T13:59:25;29.47;;;18.00;;
4001;SDS011;2015;48.670;9.060;2023-01-25T14:01:57;27.60;;;18.33;;
4001;SDS011;2015;48.670;9.060;2023-01-25T14:04:31;32.60;;;19.23;;
4001;SDS011;2015;48.670;9.060;2023-01-25T14:07:04;29.80;;;16.67;;
4001;SDS011;2015;48.670;9.060;2023-01-25T14:09:41;30.40;;;18.20;;
4001;SDS011;2015;48.670;9.060;2023-01-25T14:12:30;34.30;;;18.63;;
4001;SDS011;2015;48.670;9.060;2023-01-25T14:15:22;31.30;;;18.60;;
4001;SDS011;2015;48.670;9.060;2023-01-25T14:18:15;30.30;;;19.17;;
4001;SDS011;2015;48.670;9.060;2023-01-25T14:20:49;38.03;;;21.00;;
4001;SDS011;2015;48.670;9.060;2023-01-25T14:23:28;31.02;;;19.70;;
4001;SDS011;2015;48.670;9.060;2023-01-25T14:26:00;31.40;;;19.70;;
4001;SDS011;2015;48.670;9.060;2023-01-25T14:28:32;37.83;;;19.87;;
4001;SDS011;2015;48.670;9.060;2023-01-25T14:31:04;35.30;;;21.10;;
4001;SDS011;2015;48.670;9.060;2023-01-25T14:33:36;34.23;;;21.40;;
4001;SDS011;2015;48.670;9.060;2023-01-25T14:36:12;36.07;;;20.90;;
4001;SDS011;2015;48.670;9.060;2023-01-25T14:38:55;36.90;;;21.03;;
4001;SDS011;2015;48.670;9.060;2023-01-25T14:41:28;32.90;;;20.40;;
4001;SDS011;2015;48.670;9.060;2023-01-25T14:44:01;35.80;;;21.23;;
4001;SDS011;2015;48.670;9.060;2023-01-25T14:46:35;31.27;;;18.93;;
4001;SDS011;2015;48.670;9.060;2023-01-25T14:51:40;38.43;;;20.20;;
4001;SDS011;2015;48.670;9.060;2023-01-25T14:54:19;31.13;;;19.83;;
4001;SDS011;2015;48.670;9.060;2023-01-25T14:56:56;34.45;;;20.95;;
4001;SDS011;2015;48.670;9.060;2023-01-25T14:59:48;30.17;;;21.80;;
4001;SDS011;2015;48.670;9.060;2023-01-25T15:05:19;29.93;;;18.63;;
4001;SDS011;2015;48.670;9.060;2023-01-25T15:10:37;35.80;;;22.13;;
4001;SDS011;2015;48.670;9.060;2023-01-25T15:13:24;33.83;;;18.43;;
4001;SDS011;2015;48.670;9.060;2023-01-25T15:16:00;37.13;;;21.70;;
4001;SDS011;2015;48.670;9.060;2023-01-25T15:18:43;36.53;;;21.23;;
4001;SDS011;2015;48.670;9.060;2023-01-25T15:21:28;35.57;;;20.67;;
4001;SDS011;2015;48.670;9.060;2023-01-25T15:24:02;36.03;;;20.03;;
4001;SDS011;2015;48.670;9.060;2023-01-25T15:26:40;35.93;;;20.47;;
4001;SDS011;2015;48.670;9.060;2023-01-25T15:29:13;32.20;;;18.83;;
4001;SDS011;2015;48.670;9.060;2023-01-25T15:31:47;29.53;;;19.50;;
4001;SDS011;2015;48.670;9.060;2023-01-25T15:34:29;38.13;;;22.47;;
4001;SDS011;2015;48.670;9.060;2023-01-25T15:37:03;29.47;;;18.13;;
4001;SDS011;2015;48.670;9.060;2023-01-25T15:39:35;38.70;;;20.77;;
4001;SDS011;2015;48.670;9.060;2023-01-25T15:42:07;46.57;;;22.60;;
4001;SDS011;2015;48.670;9.060;2023-01-25T15:44:39;35.40;;;18.83;;
4001;SDS011;2015;48.670;9.060;2023-01-25T15:47:11;43.40;;;21.10;;
4001;SDS011;2015;48.670;9.060;2023-01-25T15:49:44;43.33;;;20.50;;
4001;SDS011;2015;48.670;9.060;2023-01-25T15:52:18;36.47;;;20.60;;
4001;SDS011;2015;48.670;9.060;2023-01-25T15:54:50;33.23;;;19.63;;
4001;SDS011;2015;48.670;9.060;2023-01-25T15:57:33;43.80;;;20.60;;
4001;SDS011;2015;48.670;9.060;2023-01-25T16:00:09;35.57;;;21.20;;
4001;SDS011;2015;48.670;9.060;2023-01-25T16:02:49;42.60;;;22.17;;
4001;SDS011;2015;48.670;9.060;2023-01-25T16:05:21;38.00;;;20.00;;
4001;SDS011;2015;48.670;9.060;2023-01-25T16:07:53;39.10;;;20.80;;
4001;SDS011;2015;48.670;9.060;2023-01-25T16:10:25;44.00;;;22.20;;
4001;SDS011;2015;48.670;9.060;2023-01-25T16:12:57;42.05;;;22.38;;
4001;SDS011;2015;48.670;9.060;2023-01-25T16:15:29;38.87;;;21.30;;
4001;SDS011;2015;48.670;9.060;2023-01-25T16:18:01;36.67;;;21.83;;
4001;SDS011;2015;48.670;9.060;2023-01-25T16:20:33;40.27;;;22.07;;
4001;SDS011;2015;48.670;9.060;2023-01-25T16:23:05;39.30;;;24.13;;
4001;SDS011;2015;48.670;9.060;2023-01-25T16:25:38;37.03;;;20.70;;
4001;SDS011;2015;48.670;9.060;2023-01-25T16:28:14;30.37;;;18.70;;
4001;SDS011;2015;48.670;9.060;2023-01-25T16:30:47;43.67;;;22.43;;
4001;SDS011;2015;48.670;9.060;2023-01-25T16:33:20;36.00;;;18.93;;
4001;SDS011;2015;48.670;9.060;2023-01-25T16:36:09;35.47;;;19.70;;
4001;SDS011;2015;48.670;9.060;2023-01-25T16:38:43;35.03;;;20.27;;
4001;SDS011;2015;48.670;9.060;2023-01-25T16:41:15;30.73;;;18.40;;
4001;SDS011;2015;48.670;9.060;2023-01-25T16:43:47;41.00;;;20.87;;
4001;SDS011;2015;48.670;9.060;2023-01-25T16:46:22;34.60;;;17.53;;
4001;SDS011;2015;48.670;9.060;2023-01-25T16:48:55;38.13;;;20.17;;
4001;SDS011;2015;48.670;9.060;2023-01-25T16:51:28;38.47;;;18.43;;
4001;SDS011;2015;48.670;9.060;2023-01-25T16:53:59;29.50;;;17.07;;
4001;SDS011;2015;48.670;9.060;2023-01-25T16:56:32;29.73;;;15.33;;
4001;SDS011;2015;48.670;9.060;2023-01-25T16:59:04;33.30;;;18.10;;
4001;SDS011;2015;48.670;9.060;2023-01-25T17:01:37;41.00;;;19.47;;
4001;SDS011;2015;48.670;9.060;2023-01-25T17:04:11;40.17;;;20.53;;
4001;SDS011;2015;48.670;9.060;2023-01-25T17:06:44;37.77;;;19.00;;
4001;SDS011;2015;48.670;9.060;2023-01-25T17:09:18;29.40;;;17.37;;
4001;SDS011;2015;48.670;9.060;2023-01-25T17:11:54;29.03;;;19.67;;
4001;SDS011;2015;48.670;9.060;2023-01-25T17:14:26;31.73;;;19.03;;
4001;SDS011;2015;48.670;9.060;2023-01-25T17:16:58;38.67;;;19.63;;
4001;SDS011;2015;48.670;9.060;2023-01-25T17:19:30;34.47;;;18.50;;
4001;SDS011;2015;48.670;9.060;2023-01-25T17:22:01;34.90;;;19.70;;
4001;SDS011;2015;48.670;9.060;2023-01-25T17:24:33;29.13;;;17.47;;
4001;SDS011;2015;48.670;9.060;2023-01-25T17:27:06;37.70;;;18.97;;
4001;SDS011;2015;48.670;9.060;2023-01-25T17:29:38;37.33;;;18.50;;
4001;SDS011;2015;48.670;9.060;2023-01-25T17:32:10;43.97;;;20.30;;